Terminal Aerodrome Forecast
Issued by NWS Jacksonville, FL

Home | Current Version | Previous Version | Text Only | Print | Product List | Glossary On
Versions: 1 2 3 4 5 6 7 8 9 10 11 12 13 14 15 16 17 18 19 20 21 22 23 24 25 26 27 28 29 30 31 32 33 34 35 36
000
FTUS42 KJAX 261120
TAFSSI
TAF
KSSI 261120Z 2612/2712 00000KT P6SM SCT003 BKN070
      TEMPO 2612/2613 5SM BR BKN003
     FM261300 22005KT P6SM VCSH SCT010 SCT080 SCT200
     FM261600 12009KT P6SM VCTS SCT025 BKN040CB BKN200
      TEMPO 2616/2620 VRB15G30KT 1SM +TSRA BR SCT025 BKN040CB BKN120
     FM262000 11009KT 5SM TSRA BR SCT025 BKN035CB OVC050 PROB30
      2621/2701 1SM +TSRA BR SCT020 BKN030CB OVC040=

USA.gov is the U.S. government's official web portal to all federal, state and local government web resources and services.